createdAt,value
2022-12-29T00:00:12.767Z,79.3
2022-12-29T00:01:14.043Z,79.3
2022-12-29T00:02:15.610Z,79.3
2022-12-29T00:03:18.655Z,79.4
2022-12-29T00:04:19.870Z,79.4
2022-12-29T00:05:21.275Z,79.5
2022-12-29T00:06:22.458Z,79.6
2022-12-29T00:07:23.396Z,79.6
2022-12-29T00:08:24.016Z,79.7
2022-12-29T00:09:25.152Z,79.7
2022-12-29T00:10:26.328Z,79.8
2022-12-29T00:11:27.504Z,79.9
2022-12-29T00:12:28.918Z,79.9
2022-12-29T00:13:30.057Z,80
2022-12-29T00:14:31.282Z,80.1
2022-12-29T00:15:32.543Z,80.1
2022-12-29T00:16:34.395Z,80.2
2022-12-29T00:17:35.071Z,80.2
2022-12-29T00:18:36.208Z,80.3
2022-12-29T00:19:37.354Z,80.3
2022-12-29T00:20:38.757Z,80.3
2022-12-29T00:21:39.650Z,80.4
2022-12-29T00:22:40.385Z,80.4
2022-12-29T00:23:41.231Z,80.4
2022-12-29T00:24:42.644Z,80.5
2022-12-29T00:25:43.828Z,80.5
2022-12-29T00:26:44.685Z,80.5
2022-12-29T00:27:45.610Z,80.5
2022-12-29T00:28:46.227Z,80.5
2022-12-29T00:29:47.123Z,80.5
2022-12-29T00:30:48.361Z,80.5
2022-12-29T00:31:49.917Z,80.4
2022-12-29T00:32:51.118Z,80.4
2022-12-29T00:33:52.017Z,80.3
2022-12-29T00:34:52.878Z,80.3
2022-12-29T00:35:54.004Z,80.2
2022-12-29T00:36:54.901Z,80.1
2022-12-29T00:37:55.563Z,80
2022-12-29T00:38:56.464Z,79.9
2022-12-29T00:39:57.645Z,79.9
2022-12-29T00:40:58.544Z,79.8
2022-12-29T00:41:59.721Z,79.7
2022-12-29T00:43:00.619Z,79.6
2022-12-29T00:44:02.048Z,79.6
2022-12-29T00:45:02.949Z,79.5
2022-12-29T00:46:03.843Z,79.5
2022-12-29T00:47:04.817Z,79.5
2022-12-29T00:48:05.875Z,79.5
2022-12-29T00:49:07.373Z,79.4
2022-12-29T00:50:07.999Z,79.4
2022-12-29T00:51:09.128Z,79.4
2022-12-29T00:52:10.045Z,79.4
2022-12-29T00:53:10.973Z,79.4
2022-12-29T00:54:11.801Z,79.4
2022-12-29T00:55:13.768Z,79.4
2022-12-29T00:56:14.733Z,79.4
2022-12-29T00:57:15.645Z,79.4
2022-12-29T00:58:18.361Z,79.4
2022-12-29T00:59:19.782Z,79.4
2022-12-29T01:00:20.405Z,79.4
2022-12-29T01:01:22.370Z,79.4
2022-12-29T01:02:23.928Z,79.4
2022-12-29T01:03:25.026Z,79.4
2022-12-29T01:04:25.942Z,79.4
2022-12-29T01:05:27.065Z,79.4
2022-12-29T01:06:27.972Z,79.3
2022-12-29T01:07:29.387Z,79.3
2022-12-29T01:08:30.664Z,79.3
2022-12-29T01:09:31.586Z,79.2
2022-12-29T01:10:32.567Z,79.2
2022-12-29T01:11:33.465Z,79.2
2022-12-29T01:12:34.608Z,79.1
2022-12-29T01:13:35.227Z,79.1
2022-12-29T01:14:36.361Z,79.1
2022-12-29T01:15:37.774Z,79.1
2022-12-29T01:16:38.968Z,79
2022-12-29T01:17:39.806Z,79
2022-12-29T01:18:40.425Z,79
2022-12-29T01:19:41.283Z,79
2022-12-29T01:20:42.699Z,79
2022-12-29T01:21:43.551Z,79
2022-12-29T01:22:44.445Z,79
2022-12-29T01:23:45.700Z,79
2022-12-29T01:24:46.600Z,79
2022-12-29T01:25:47.770Z,79
2022-12-29T01:26:48.627Z,79
2022-12-29T01:27:50.045Z,79.1
2022-12-29T01:28:50.659Z,79.1
2022-12-29T01:29:51.276Z,79.1
2022-12-29T01:30:52.172Z,79.2
2022-12-29T01:31:53.431Z,79.2
2022-12-29T01:32:54.441Z,79.3
2022-12-29T01:33:55.618Z,79.3
2022-12-29T01:34:56.237Z,79.4
2022-12-29T01:35:57.388Z,79.4
2022-12-29T01:36:58.239Z,79.5
2022-12-29T01:37:59.647Z,79.5
2022-12-29T01:39:00.577Z,79.6
2022-12-29T01:40:01.687Z,79.6
2022-12-29T01:41:02.540Z,79.7
2022-12-29T01:42:03.395Z,79.7
2022-12-29T01:43:04.815Z,79.7
2022-12-29T01:44:05.711Z,79.8
2022-12-29T01:45:07.391Z,79.8
2022-12-29T01:46:08.860Z,79.9
2022-12-29T01:47:09.893Z,79.9
2022-12-29T01:48:10.517Z,79.9
2022-12-29T01:49:11.725Z,80
2022-12-29T01:50:12.902Z,80
2022-12-29T01:51:14.716Z,80
2022-12-29T01:52:16.902Z,80.1
2022-12-29T01:53:18.756Z,80.1
2022-12-29T01:54:20.324Z,80.1
2022-12-29T01:55:20.945Z,80.2
2022-12-29T01:56:21.804Z,80.2
2022-12-29T01:57:22.685Z,80.2
2022-12-29T01:58:23.605Z,80.2
2022-12-29T01:59:24.743Z,80.2
2022-12-29T02:00:25.660Z,80.2
2022-12-29T02:01:27.352Z,80.2
2022-12-29T02:02:34.781Z,80.2
2022-12-29T02:03:36.070Z,80.2
2022-12-29T02:04:37.325Z,80.2
2022-12-29T02:05:38.498Z,80.2
2022-12-29T02:06:39.919Z,80.2
2022-12-29T02:07:41.051Z,80.1
2022-12-29T02:08:41.963Z,80.1
2022-12-29T02:09:42.834Z,80.1
2022-12-29T02:10:43.733Z,80.1
2022-12-29T02:11:44.599Z,80.1
2022-12-29T02:12:45.450Z,80.1
2022-12-29T02:13:46.310Z,80.2
2022-12-29T02:14:46.946Z,80.2
2022-12-29T02:15:48.364Z,80.2
2022-12-29T02:16:49.843Z,80.3
2022-12-29T02:17:51.137Z,80.3
2022-12-29T02:18:52.315Z,80.4
2022-12-29T02:19:53.169Z,80.4
2022-12-29T02:20:54.066Z,80.5
2022-12-29T02:21:54.968Z,80.5
2022-12-29T02:22:55.864Z,80.6
2022-12-29T02:23:56.785Z,80.7
2022-12-29T02:24:57.494Z,80.8
2022-12-29T02:25:58.384Z,80.8
2022-12-29T02:26:59.672Z,80.8
2022-12-29T02:28:00.815Z,80.9
2022-12-29T02:29:01.668Z,80.9
2022-12-29T02:30:02.291Z,81
2022-12-29T02:31:03.698Z,81
2022-12-29T02:32:05.178Z,81
2022-12-29T02:33:06.415Z,81.1
2022-12-29T02:34:07.812Z,81.1
2022-12-29T02:35:09.001Z,81.1
2022-12-29T02:36:09.852Z,81.1
2022-12-29T02:37:10.711Z,81.2
2022-12-29T02:38:11.849Z,81.2
2022-12-29T02:39:13.261Z,81.2
2022-12-29T02:40:15.370Z,81.2
2022-12-29T02:41:18.788Z,81.2
2022-12-29T02:42:19.648Z,81.2
2022-12-29T02:43:21.069Z,81.2
2022-12-29T02:44:22.198Z,81.2
2022-12-29T02:45:23.095Z,81.2
2022-12-29T02:46:24.817Z,81.2
2022-12-29T02:47:26.059Z,81.3
2022-12-29T02:48:27.239Z,81.3
2022-12-29T02:49:28.380Z,81.3
2022-12-29T02:50:29.808Z,81.3
2022-12-29T02:51:30.711Z,81.3
2022-12-29T02:52:32.129Z,81.3
2022-12-29T02:53:33.273Z,81.3
2022-12-29T02:54:35.103Z,81.3
2022-12-29T02:55:36.267Z,81.3
2022-12-29T02:56:37.452Z,81.3
2022-12-29T02:57:39.069Z,81.2
2022-12-29T02:58:40.488Z,81.2
2022-12-29T02:59:41.669Z,81.2
2022-12-29T03:00:43.177Z,81.2
2022-12-29T03:01:44.769Z,81.1
2022-12-29T03:02:46.783Z,81.1
2022-12-29T03:03:48.262Z,81.1
2022-12-29T03:04:49.683Z,81.1
2022-12-29T03:05:50.822Z,81.1
2022-12-29T03:06:52.236Z,81.1
2022-12-29T03:07:53.651Z,81.1
2022-12-29T03:08:55.068Z,81
2022-12-29T03:09:56.478Z,81
2022-12-29T03:10:57.691Z,81
2022-12-29T03:11:59.078Z,81
2022-12-29T03:13:00.262Z,81
2022-12-29T03:14:01.678Z,81
2022-12-29T03:15:03.091Z,81
2022-12-29T03:16:04.399Z,81
2022-12-29T03:17:06.165Z,81
2022-12-29T03:18:07.634Z,81
2022-12-29T03:19:08.748Z,81
2022-12-29T03:20:09.615Z,81
2022-12-29T03:21:10.747Z,81
2022-12-29T03:22:11.880Z,81
2022-12-29T03:23:12.745Z,80.9
2022-12-29T03:24:13.928Z,81
2022-12-29T03:25:15.853Z,81
2022-12-29T03:26:17.296Z,81
2022-12-29T03:27:19.490Z,81
2022-12-29T03:28:20.589Z,81
2022-12-29T03:29:21.999Z,81
2022-12-29T03:30:23.176Z,81
2022-12-29T03:31:24.603Z,81
2022-12-29T03:32:25.836Z,81
2022-12-29T03:33:26.478Z,81
2022-12-29T03:34:27.615Z,80.9
2022-12-29T03:35:29.031Z,80.9
2022-12-29T03:36:30.250Z,80.9
2022-12-29T03:37:31.152Z,80.9
2022-12-29T03:38:32.053Z,80.8
2022-12-29T03:39:33.188Z,80.8
2022-12-29T03:40:35.437Z,80.8
2022-12-29T03:41:36.582Z,80.8
2022-12-29T03:42:37.491Z,80.8
2022-12-29T03:43:38.910Z,80.8
2022-12-29T03:44:40.052Z,80.7
2022-12-29T03:45:40.905Z,80.7
2022-12-29T03:46:42.133Z,80.7
2022-12-29T03:47:43.000Z,80.7
2022-12-29T03:48:43.911Z,80.6
2022-12-29T03:49:44.764Z,80.6
2022-12-29T03:50:45.677Z,80.6
2022-12-29T03:51:46.296Z,80.6
2022-12-29T03:52:46.921Z,80.6
2022-12-29T03:53:48.064Z,80.7
2022-12-29T03:54:48.922Z,80.7
2022-12-29T03:55:49.557Z,80.7
2022-12-29T03:56:50.212Z,80.8
2022-12-29T03:57:51.318Z,80.8
2022-12-29T03:58:52.220Z,80.9
2022-12-29T03:59:53.120Z,81
2022-12-29T04:00:53.743Z,81.1
2022-12-29T04:01:55.244Z,81.1
2022-12-29T04:02:57.691Z,81.2
2022-12-29T04:03:58.697Z,81.3
2022-12-29T04:04:59.830Z,81.4
2022-12-29T04:06:00.485Z,81.4
2022-12-29T04:07:01.875Z,81.5
2022-12-29T04:08:03.046Z,81.5
2022-12-29T04:09:04.226Z,81.5
2022-12-29T04:10:05.285Z,81.6
2022-12-29T04:11:06.420Z,81.6
2022-12-29T04:12:08.465Z,81.7
2022-12-29T04:13:09.097Z,81.7
2022-12-29T04:14:10.506Z,81.7
2022-12-29T04:15:11.927Z,81.7
2022-12-29T04:16:13.182Z,81.7
2022-12-29T04:17:15.207Z,81.6
2022-12-29T04:18:16.086Z,81.6
2022-12-29T04:19:19.524Z,81.6
2022-12-29T04:20:20.661Z,81.6
2022-12-29T04:21:21.804Z,81.6
2022-12-29T04:22:22.652Z,81.6
2022-12-29T04:23:23.794Z,81.5
2022-12-29T04:24:25.206Z,81.5
2022-12-29T04:25:26.347Z,81.5
2022-12-29T04:26:27.482Z,81.5
2022-12-29T04:27:28.696Z,81.5
2022-12-29T04:28:29.610Z,81.4
2022-12-29T04:29:31.037Z,81.4
2022-12-29T04:30:32.177Z,81.4
2022-12-29T04:31:33.318Z,81.3
2022-12-29T04:32:35.111Z,81.3
2022-12-29T04:33:36.006Z,81.2
2022-12-29T04:34:42.038Z,81.2
2022-12-29T04:35:43.452Z,81.2
2022-12-29T04:36:44.065Z,81.1
2022-12-29T04:37:44.938Z,81.1
2022-12-29T04:38:45.843Z,81
2022-12-29T04:39:46.972Z,81
2022-12-29T04:40:47.873Z,80.9
2022-12-29T04:41:48.729Z,80.8
2022-12-29T04:42:49.651Z,80.8
2022-12-29T04:43:50.277Z,80.7
2022-12-29T04:44:51.179Z,80.6
2022-12-29T04:45:52.310Z,80.5
2022-12-29T04:46:53.559Z,80.4
2022-12-29T04:47:54.492Z,80.3
2022-12-29T04:48:55.395Z,80.3
2022-12-29T04:49:56.266Z,80.2
2022-12-29T04:50:56.883Z,80.2
2022-12-29T04:51:57.741Z,80.1
2022-12-29T04:52:58.920Z,80.1
2022-12-29T04:53:59.830Z,80
2022-12-29T04:55:00.963Z,80
2022-12-29T04:56:01.818Z,80
2022-12-29T04:57:02.440Z,79.9
2022-12-29T04:58:03.321Z,79.9
2022-12-29T04:59:04.721Z,79.9
2022-12-29T05:00:05.748Z,79.8
2022-12-29T05:01:08.004Z,79.7
2022-12-29T05:02:09.568Z,79.7
2022-12-29T05:03:11.349Z,79.6
2022-12-29T05:04:12.872Z,79.6
2022-12-29T05:05:14.687Z,79.6
2022-12-29T05:06:15.588Z,79.6
2022-12-29T05:07:16.443Z,79.6
2022-12-29T05:08:17.357Z,79.6
2022-12-29T05:09:19.470Z,79.6
2022-12-29T05:10:20.349Z,79.5
2022-12-29T05:11:20.977Z,79.5
2022-12-29T05:12:21.884Z,79.5
2022-12-29T05:13:23.039Z,79.4
2022-12-29T05:14:24.152Z,79.4
2022-12-29T05:15:24.772Z,79.4
2022-12-29T05:16:25.731Z,79.3
2022-12-29T05:17:26.925Z,79.3
2022-12-29T05:18:27.836Z,79.3
2022-12-29T05:19:28.696Z,79.2
2022-12-29T05:20:29.325Z,79.2
2022-12-29T05:21:30.462Z,79.1
2022-12-29T05:22:31.372Z,79.1
2022-12-29T05:23:32.556Z,79
2022-12-29T05:24:34.179Z,79
2022-12-29T05:25:34.813Z,79
2022-12-29T05:26:35.429Z,78.9
2022-12-29T05:27:36.570Z,78.9
2022-12-29T05:28:37.449Z,78.9
2022-12-29T05:29:38.284Z,78.9
2022-12-29T05:30:39.375Z,78.8
2022-12-29T05:31:40.860Z,78.8
2022-12-29T05:32:42.109Z,78.8
2022-12-29T05:33:43.386Z,78.8
2022-12-29T05:34:44.317Z,78.7
2022-12-29T05:35:45.214Z,78.7
2022-12-29T05:36:46.630Z,78.7
2022-12-29T05:37:47.768Z,78.7
2022-12-29T05:38:48.945Z,78.7
2022-12-29T05:39:50.121Z,78.7
2022-12-29T05:40:51.014Z,78.7
2022-12-29T05:41:52.211Z,78.7
2022-12-29T05:42:53.120Z,78.7
2022-12-29T05:43:54.050Z,78.7
2022-12-29T05:44:55.069Z,78.7
2022-12-29T05:45:56.168Z,78.7
2022-12-29T05:46:57.584Z,78.7
2022-12-29T05:47:58.775Z,78.7
2022-12-29T05:48:59.396Z,78.7
2022-12-29T05:50:00.299Z,78.7
2022-12-29T05:51:01.429Z,78.8
2022-12-29T05:52:02.853Z,78.8
2022-12-29T05:53:03.763Z,78.8
2022-12-29T05:54:04.383Z,78.8
2022-12-29T05:55:05.518Z,78.8
2022-12-29T05:56:06.660Z,78.9
2022-12-29T05:57:08.168Z,79
2022-12-29T05:58:09.027Z,79
2022-12-29T05:59:10.069Z,79
2022-12-29T06:00:10.965Z,79.1
2022-12-29T06:01:12.101Z,79.1
2022-12-29T06:02:13.439Z,79.2
2022-12-29T06:03:15.544Z,79.2
2022-12-29T06:04:16.533Z,79.2
2022-12-29T06:05:18.466Z,79.2
2022-12-29T06:06:19.658Z,79.2
2022-12-29T06:07:20.313Z,79.2
2022-12-29T06:08:21.435Z,79.2
2022-12-29T06:09:22.296Z,79.2
2022-12-29T06:10:23.431Z,79.2
2022-12-29T06:11:24.621Z,79.2
2022-12-29T06:12:25.740Z,79.2
2022-12-29T06:13:27.095Z,79.2
2022-12-29T06:14:28.545Z,79.3
2022-12-29T06:15:29.165Z,79.3
2022-12-29T06:16:30.809Z,79.3
2022-12-29T06:17:32.140Z,79.4
2022-12-29T06:18:32.998Z,79.4
2022-12-29T06:19:34.137Z,79.4
2022-12-29T06:20:35.058Z,79.4
2022-12-29T06:21:36.017Z,79.4
2022-12-29T06:22:36.644Z,79.4
2022-12-29T06:23:37.502Z,79.4
2022-12-29T06:24:38.351Z,79.4
2022-12-29T06:25:39.496Z,79.4
2022-12-29T06:26:40.169Z,79.4
2022-12-29T06:27:40.792Z,79.3
2022-12-29T06:28:41.692Z,79.3
2022-12-29T06:29:42.574Z,79.3
2022-12-29T06:30:43.408Z,79.3
2022-12-29T06:31:45.323Z,79.3
2022-12-29T06:32:46.128Z,79.3
2022-12-29T06:33:51.007Z,79.4
2022-12-29T06:34:51.845Z,79.4
2022-12-29T06:35:52.757Z,79.4
2022-12-29T06:36:53.939Z,79.4
2022-12-29T06:37:54.838Z,79.4
2022-12-29T06:38:55.743Z,79.4
2022-12-29T06:39:56.599Z,79.4
2022-12-29T06:40:57.454Z,79.4
2022-12-29T06:41:58.354Z,79.4
2022-12-29T06:42:59.258Z,79.4
2022-12-29T06:43:59.881Z,79.4
2022-12-29T06:45:01.333Z,79.4
2022-12-29T06:46:02.247Z,79.5
2022-12-29T06:47:03.362Z,79.5
2022-12-29T06:48:04.496Z,79.5
2022-12-29T06:49:05.152Z,79.5
2022-12-29T06:50:06.291Z,79.5
2022-12-29T06:51:07.147Z,79.5
2022-12-29T06:52:14.636Z,79.5
2022-12-29T06:53:15.260Z,79.5
2022-12-29T06:54:15.893Z,79.5
2022-12-29T06:55:17.206Z,79.5
2022-12-29T06:56:18.207Z,79.4
2022-12-29T06:57:19.099Z,79.4
2022-12-29T06:58:19.977Z,79.4
2022-12-29T06:59:20.914Z,79.3
2022-12-29T07:00:24.000Z,79.3
2022-12-29T07:01:25.489Z,79.3
2022-12-29T07:02:27.675Z,79.2
2022-12-29T07:03:28.906Z,79.2
2022-12-29T07:04:29.951Z,79.2
2022-12-29T07:05:30.576Z,79.2
2022-12-29T07:06:32.012Z,79.2
2022-12-29T07:07:33.130Z,79.2
2022-12-29T07:08:34.686Z,79.2
2022-12-29T07:09:35.770Z,79.2
2022-12-29T07:10:36.989Z,79.2
2022-12-29T07:11:37.892Z,79.3
2022-12-29T07:12:38.796Z,79.3
2022-12-29T07:13:39.988Z,79.3
2022-12-29T07:14:44.277Z,79.3
2022-12-29T07:15:45.730Z,79.3
2022-12-29T07:16:47.062Z,79.3
2022-12-29T07:17:48.340Z,79.2
2022-12-29T07:18:49.253Z,79.2
2022-12-29T07:19:50.374Z,79.2
2022-12-29T07:20:51.515Z,79.2
2022-12-29T07:21:52.654Z,79.1
2022-12-29T07:22:53.791Z,79.1
2022-12-29T07:23:54.928Z,79.1
2022-12-29T07:24:55.780Z,79.1
2022-12-29T07:25:56.956Z,79.1
2022-12-29T07:26:58.337Z,79.1
2022-12-29T07:27:58.969Z,79.1
2022-12-29T07:28:59.813Z,79.1
2022-12-29T07:30:00.837Z,79.1
2022-12-29T07:31:02.016Z,79.1
2022-12-29T07:32:03.202Z,79.1
2022-12-29T07:33:04.923Z,79.1
2022-12-29T07:34:05.542Z,79.1
2022-12-29T07:35:06.169Z,79.1
2022-12-29T07:36:07.775Z,79
2022-12-29T07:37:08.392Z,79
2022-12-29T07:38:09.936Z,79
2022-12-29T07:39:10.798Z,79
2022-12-29T07:40:11.705Z,78.9
2022-12-29T07:41:13.030Z,78.9
2022-12-29T07:42:14.777Z,78.8
2022-12-29T07:43:15.634Z,78.8
2022-12-29T07:44:17.793Z,78.7
2022-12-29T07:45:18.973Z,78.7
2022-12-29T07:46:59.392Z,78.6
2022-12-29T07:48:01.199Z,78.5
2022-12-29T07:49:02.633Z,78.2
2022-12-29T07:50:03.532Z,77.9
2022-12-29T07:51:04.199Z,77.6
2022-12-29T07:52:04.873Z,77.4
2022-12-29T07:53:05.758Z,77.2
2022-12-29T07:54:06.896Z,77.1
2022-12-29T07:55:07.517Z,77
2022-12-29T07:56:08.662Z,76.8
2022-12-29T07:57:09.288Z,76.6
2022-12-29T07:58:10.702Z,76.4
2022-12-29T07:59:11.317Z,76.3
2022-12-29T08:00:12.459Z,76.1
2022-12-29T08:01:13.707Z,76
2022-12-29T08:02:15.202Z,75.9
2022-12-29T08:03:16.440Z,75.8
2022-12-29T08:04:17.635Z,75.8
2022-12-29T08:05:18.603Z,75.8
2022-12-29T08:06:19.542Z,75.8
2022-12-29T08:07:20.404Z,75.8
2022-12-29T08:08:21.828Z,75.8
2022-12-29T08:09:25.039Z,75.7
2022-12-29T08:10:26.415Z,75.7
2022-12-29T08:11:27.598Z,75.7
2022-12-29T08:12:28.498Z,75.7
2022-12-29T08:13:29.402Z,75.7
2022-12-29T08:14:30.302Z,75.7
2022-12-29T08:15:33.266Z,75.7
2022-12-29T08:16:35.496Z,75.7
2022-12-29T08:17:37.097Z,75.7
2022-12-29T08:18:38.209Z,75.7
2022-12-29T08:19:39.085Z,75.7
2022-12-29T08:20:40.497Z,75.6
2022-12-29T08:21:41.401Z,75.6
2022-12-29T08:22:42.017Z,75.6
2022-12-29T08:23:43.155Z,75.6
2022-12-29T08:24:44.060Z,75.6
2022-12-29T08:25:45.241Z,75.5
2022-12-29T08:26:46.418Z,75.5
2022-12-29T08:27:47.036Z,75.4
2022-12-29T08:28:47.682Z,75.4
2022-12-29T08:29:48.798Z,75.2
2022-12-29T08:30:49.855Z,75.1
2022-12-29T08:31:50.938Z,75.1
2022-12-29T08:32:52.146Z,75
2022-12-29T08:33:53.529Z,75
2022-12-29T08:34:54.535Z,75
2022-12-29T08:35:55.153Z,75
2022-12-29T08:36:55.771Z,75
2022-12-29T08:37:56.912Z,75
2022-12-29T08:38:58.045Z,75.1
2022-12-29T08:39:59.193Z,75
2022-12-29T08:40:59.814Z,74.9
2022-12-29T08:42:00.718Z,74.8
2022-12-29T08:43:01.855Z,74.8
2022-12-29T08:44:03.268Z,74.8
2022-12-29T08:45:04.130Z,74.7
2022-12-29T08:46:05.243Z,74.7
2022-12-29T08:47:06.229Z,74.7
2022-12-29T08:48:07.689Z,74.8
2022-12-29T08:49:08.523Z,74.8
2022-12-29T08:50:09.427Z,74.8
2022-12-29T08:51:10.323Z,74.8
2022-12-29T08:52:10.943Z,74.9
2022-12-29T08:53:11.561Z,74.8
2022-12-29T08:54:13.484Z,74.7
2022-12-29T08:55:14.902Z,74.6
2022-12-29T08:56:15.529Z,74.4
2022-12-29T08:57:16.660Z,74.3
2022-12-29T08:58:18.080Z,74.3
2022-12-29T08:59:18.992Z,74.3
2022-12-29T09:00:20.498Z,74.3
2022-12-29T09:01:22.007Z,74.4
2022-12-29T09:02:25.495Z,74.4
2022-12-29T09:04:16.853Z,74.3
2022-12-29T09:05:18.668Z,74.3
2022-12-29T09:06:19.742Z,74.3
2022-12-29T09:07:20.638Z,74.2
2022-12-29T09:08:27.032Z,74.3
2022-12-29T09:09:28.216Z,74.3
2022-12-29T09:10:29.356Z,74.3
2022-12-29T09:11:30.768Z,74.2
2022-12-29T09:12:37.527Z,74.3
2022-12-29T09:13:38.456Z,74.4
2022-12-29T09:14:39.597Z,74.4
2022-12-29T09:15:40.945Z,74.5
2022-12-29T09:16:42.166Z,74.8
2022-12-29T09:17:43.453Z,75.1
2022-12-29T09:18:44.866Z,75.4
2022-12-29T09:19:46.072Z,75.6
2022-12-29T09:20:47.255Z,75.9
2022-12-29T09:21:48.114Z,76
2022-12-29T09:22:48.760Z,76.2
2022-12-29T09:23:49.692Z,76.4
2022-12-29T09:24:50.991Z,76.6
2022-12-29T09:25:51.636Z,76.8
2022-12-29T09:26:52.270Z,77.1
2022-12-29T09:27:53.402Z,77.3
2022-12-29T09:28:54.314Z,77.5
2022-12-29T09:29:55.441Z,77.8
2022-12-29T09:30:56.711Z,78.2
2022-12-29T09:31:57.852Z,78.8
2022-12-29T09:32:58.478Z,79.1
2022-12-29T09:33:59.614Z,79.4
2022-12-29T09:35:00.555Z,79.7
2022-12-29T09:36:01.668Z,79.8
2022-12-29T09:37:02.789Z,80.1
2022-12-29T09:38:03.426Z,80.4
2022-12-29T09:39:04.332Z,80.6
2022-12-29T09:40:05.244Z,80.7
2022-12-29T09:41:06.665Z,80.8
2022-12-29T09:42:07.588Z,80.9
2022-12-29T09:43:08.226Z,81
2022-12-29T09:44:08.852Z,81
2022-12-29T09:45:10.266Z,81
2022-12-29T09:46:11.387Z,81.1
2022-12-29T09:47:12.492Z,81.2
2022-12-29T09:48:13.521Z,81.3
2022-12-29T09:49:14.141Z,81.3
2022-12-29T09:50:15.340Z,81.1
2022-12-29T09:51:16.718Z,81
2022-12-29T09:52:17.339Z,80.8
2022-12-29T09:53:18.527Z,80.5
2022-12-29T09:54:19.703Z,80.3
2022-12-29T09:55:20.607Z,80.2
2022-12-29T09:56:21.578Z,80.1
2022-12-29T09:57:22.431Z,79.7
2022-12-29T09:58:24.934Z,79.6
2022-12-29T09:59:26.810Z,79.6
2022-12-29T10:00:28.407Z,79.7
2022-12-29T10:01:30.354Z,79.9
2022-12-29T10:02:32.069Z,80.2
2022-12-29T10:03:33.044Z,80.4
2022-12-29T10:04:34.894Z,80.7
2022-12-29T10:05:36.062Z,80.8
2022-12-29T10:07:30.736Z,81
2022-12-29T10:08:31.949Z,81.3
2022-12-29T10:09:33.393Z,81.4
2022-12-29T10:10:34.663Z,81.5
2022-12-29T10:11:35.860Z,81.6
2022-12-29T10:12:36.982Z,81.6
2022-12-29T10:13:38.391Z,81.5
2022-12-29T10:14:39.252Z,81.5
2022-12-29T10:15:40.424Z,81.4
2022-12-29T10:16:41.648Z,81.3
2022-12-29T10:17:42.953Z,81.2
2022-12-29T10:18:44.134Z,81.2
2022-12-29T10:19:45.147Z,81.2
2022-12-29T10:20:46.346Z,81.1
2022-12-29T10:21:46.975Z,80.9
2022-12-29T10:22:48.158Z,80.7
2022-12-29T10:23:49.171Z,80.4
2022-12-29T10:24:50.312Z,80.2
2022-12-29T10:25:51.183Z,80.1
2022-12-29T10:26:52.082Z,79.9
2022-12-29T10:27:52.979Z,79.8
2022-12-29T10:28:53.884Z,79.7
2022-12-29T10:29:54.738Z,79.6
2022-12-29T10:30:55.361Z,79.6
2022-12-29T10:31:56.773Z,79.6
2022-12-29T10:32:58.115Z,79.5
2022-12-29T10:33:58.974Z,79.4
2022-12-29T10:35:00.138Z,79.4
2022-12-29T10:36:01.271Z,79.2
2022-12-29T10:37:02.386Z,79.1
2022-12-29T10:38:03.295Z,79.3
2022-12-29T10:39:04.498Z,79.4
2022-12-29T10:40:05.407Z,79.4
2022-12-29T10:41:06.258Z,79.6
2022-12-29T10:42:07.118Z,79.7
2022-12-29T10:43:07.762Z,79.5
2022-12-29T10:44:08.962Z,79.2
2022-12-29T10:45:09.590Z,79.1
2022-12-29T10:46:10.905Z,79.1
2022-12-29T10:47:12.083Z,79
2022-12-29T10:48:12.913Z,78.9
2022-12-29T10:49:22.861Z,79
2022-12-29T10:50:24.275Z,78.9
2022-12-29T10:51:25.165Z,78.5
2022-12-29T10:52:26.271Z,78.3
2022-12-29T10:53:27.174Z,78.1
2022-12-29T10:54:27.794Z,77.8
2022-12-29T10:55:28.975Z,77.5
2022-12-29T10:56:29.876Z,77.4
2022-12-29T10:57:30.782Z,77.3
2022-12-29T10:58:31.682Z,77.3
2022-12-29T10:59:32.576Z,77.3
2022-12-29T11:00:33.910Z,77.4
2022-12-29T11:01:35.887Z,77.4
2022-12-29T11:02:37.594Z,77.4
2022-12-29T11:03:38.325Z,77.3
2022-12-29T11:04:39.475Z,77.2
2022-12-29T11:05:40.380Z,76.8
2022-12-29T11:06:41.538Z,76.6
2022-12-29T11:07:42.650Z,76.5
2022-12-29T11:08:43.512Z,76.4
2022-12-29T11:09:44.646Z,76.3
2022-12-29T11:10:45.554Z,76.4
2022-12-29T11:11:46.696Z,76.5
2022-12-29T11:12:47.837Z,76.5
2022-12-29T11:13:48.736Z,76.4
2022-12-29T11:14:49.364Z,76.5
2022-12-29T11:15:50.509Z,76.6
2022-12-29T11:16:51.497Z,76.7
2022-12-29T11:17:52.527Z,76.7
2022-12-29T11:18:53.662Z,76.9
2022-12-29T11:19:54.849Z,76.8
2022-12-29T11:20:55.710Z,76.8
2022-12-29T11:21:56.872Z,76.8
2022-12-29T11:22:57.492Z,77
2022-12-29T11:23:58.107Z,76.8
2022-12-29T11:24:59.245Z,75.4
2022-12-29T11:26:00.382Z,76.2
2022-12-29T11:27:01.263Z,76.2
2022-12-29T11:28:02.165Z,76.3
2022-12-29T11:29:03.076Z,76.3
2022-12-29T11:30:03.795Z,76.4
2022-12-29T11:31:04.951Z,76.5
2022-12-29T11:32:06.007Z,76.5
2022-12-29T11:33:07.179Z,76.6
2022-12-29T11:34:08.077Z,76.6
2022-12-29T11:35:09.317Z,76.8
2022-12-29T11:36:10.442Z,76.8
2022-12-29T11:37:11.469Z,76.9
2022-12-29T11:38:12.380Z,76.8
2022-12-29T11:39:14.893Z,76.7
2022-12-29T11:40:16.462Z,76.6
2022-12-29T11:41:17.320Z,76.5
2022-12-29T11:42:18.230Z,76.5
2022-12-29T11:43:19.138Z,76.5
2022-12-29T11:44:20.035Z,76.5
2022-12-29T11:45:20.942Z,76.6
2022-12-29T11:46:22.224Z,76.7
2022-12-29T11:47:23.246Z,76.6
2022-12-29T11:48:24.154Z,76.2
2022-12-29T11:49:25.069Z,76.1
2022-12-29T11:50:26.200Z,76.1
2022-12-29T11:51:27.108Z,76.1
2022-12-29T11:52:28.397Z,76.2
2022-12-29T11:53:29.017Z,76.3
2022-12-29T11:54:29.886Z,76.4
2022-12-29T11:55:31.066Z,76.2
2022-12-29T11:56:41.801Z,76.1
2022-12-29T11:57:42.933Z,76.1
2022-12-29T11:58:44.074Z,76
2022-12-29T11:59:44.719Z,75.9
2022-12-29T12:00:45.613Z,75.6
2022-12-29T12:01:47.079Z,75.4
2022-12-29T12:02:47.791Z,75.2
2022-12-29T12:03:49.242Z,74.8
2022-12-29T12:04:50.014Z,74.7
2022-12-29T12:05:50.874Z,74.6
2022-12-29T12:06:51.493Z,74.5
2022-12-29T12:07:52.474Z,74.4
2022-12-29T12:08:53.132Z,73.6
2022-12-29T12:09:54.038Z,73.1
2022-12-29T12:10:55.227Z,72.8
2022-12-29T12:11:55.857Z,72.6
2022-12-29T12:12:57.020Z,72.6
2022-12-29T12:13:58.172Z,72.8
2022-12-29T12:14:59.313Z,72.6
2022-12-29T12:16:00.967Z,72.6
2022-12-29T12:17:02.152Z,72.5
2022-12-29T12:18:02.775Z,72.4
2022-12-29T12:19:03.397Z,72.3
2022-12-29T12:20:04.293Z,72.4
2022-12-29T12:21:04.945Z,72.2
2022-12-29T12:22:05.783Z,71.8
2022-12-29T12:23:07.096Z,71.9
2022-12-29T12:24:07.786Z,71.9
2022-12-29T12:25:08.913Z,71.8
2022-12-29T12:26:10.040Z,71.6
2022-12-29T12:27:10.952Z,71.5
2022-12-29T12:28:12.410Z,71.3
2022-12-29T12:29:13.313Z,71.3
2022-12-29T12:30:14.078Z,71.1
2022-12-29T12:31:15.349Z,71
2022-12-29T12:32:16.655Z,71
2022-12-29T12:33:17.632Z,70.9
2022-12-29T12:34:18.769Z,70.6
2022-12-29T15:24:09.349Z,73
2022-12-29T15:25:10.738Z,72.9
2022-12-29T15:26:11.640Z,72.8
2022-12-29T15:27:12.549Z,72.7
2022-12-29T15:28:13.961Z,72.6
2022-12-29T15:29:15.101Z,72.6
2022-12-29T15:30:18.988Z,72.5
2022-12-29T15:31:31.224Z,72.5
2022-12-29T15:32:32.648Z,72.5
2022-12-29T15:33:33.547Z,72.5
2022-12-29T15:34:34.672Z,72.4
2022-12-29T15:35:36.051Z,72.4
2022-12-29T15:36:37.248Z,72.4
2022-12-29T15:37:38.091Z,72.5
2022-12-29T15:38:41.647Z,72.5
2022-12-29T15:39:43.119Z,72.6
2022-12-29T15:40:44.343Z,72.6
2022-12-29T15:41:45.206Z,72.6
2022-12-29T15:42:46.332Z,72.7
2022-12-29T15:43:48.464Z,72.8
2022-12-29T15:45:11.304Z,72.9
2022-12-29T15:46:12.957Z,73.1
2022-12-29T15:47:13.986Z,73.3
2022-12-29T15:48:14.599Z,73.4
2022-12-29T15:49:15.477Z,73.6
2022-12-29T15:50:16.380Z,73.7
2022-12-29T15:51:17.792Z,73.8
2022-12-29T15:52:18.935Z,73.9
2022-12-29T15:53:20.344Z,74
2022-12-29T15:54:21.498Z,74.1
2022-12-29T15:55:23.005Z,74.2
2022-12-29T15:56:23.837Z,74.2
2022-12-29T15:57:25.019Z,74.2
2022-12-29T15:58:26.210Z,74.2
2022-12-29T15:59:26.877Z,74.2
2022-12-29T16:00:27.988Z,74.2
2022-12-29T16:01:29.913Z,74.3
2022-12-29T16:02:32.116Z,74.4
2022-12-29T16:03:33.758Z,74.4
2022-12-29T16:05:18.324Z,74.5
2022-12-29T16:06:20.026Z,74.7
2022-12-29T16:07:21.441Z,74.8
2022-12-29T16:08:22.669Z,74.8
2022-12-29T16:09:24.109Z,74.8
2022-12-29T16:10:25.282Z,74.8
2022-12-29T16:11:26.453Z,74.9
2022-12-29T16:12:27.275Z,75
2022-12-29T16:13:28.452Z,75.1
2022-12-29T16:14:29.316Z,75.2
2022-12-29T16:15:29.948Z,75.3
2022-12-29T16:16:31.659Z,75.5
2022-12-29T16:17:32.783Z,75.6
2022-12-29T16:18:34.207Z,75.7
2022-12-29T16:19:35.614Z,75.8
2022-12-29T16:20:37.020Z,75.8
2022-12-29T16:21:37.878Z,75.9
2022-12-29T16:22:39.299Z,76
2022-12-29T16:23:39.924Z,76.1
2022-12-29T16:24:41.152Z,76.2
2022-12-29T16:25:42.598Z,76.2
2022-12-29T16:26:43.981Z,76.2
2022-12-29T16:27:45.122Z,76.3
2022-12-29T16:28:46.534Z,76.3
2022-12-29T16:29:47.433Z,76.3
2022-12-29T16:30:48.944Z,76.3
2022-12-29T16:31:50.335Z,76.4
2022-12-29T16:32:51.776Z,76.4